Time;durP1;ratioP1;P1;durP2;ratioP2;P2;SDS_P1;SDS_P2;PMS_P1;PMS_P2;Temp;Humidity;BMP_temperature;BMP_pressure;BME280_temperature;BME280_humidity;BME280_pressure;Samples;Min_cycle;Max_cycle;Signal;HPM_P1;HPM_P2
2022/09/29 00:01:54;;;;;;;1.90;1.50;;;;;;;9.11;79.26;99233.47;5060465;28;20767;-80
2022/09/29 00:04:21;;;;;;;1.80;1.70;;;;;;;9.08;79.68;99238.16;5056040;28;20220;-80
2022/09/29 00:06:47;;;;;;;2.60;2.00;;;;;;;9.04;79.83;99242.88;5063419;28;20197;-80
2022/09/29 00:09:14;;;;;;;4.30;1.90;;;;;;;8.99;79.79;99237.91;5055192;28;20198;-80
2022/09/29 00:11:42;;;;;;;1.97;1.77;;;;;;;8.93;79.74;99235.78;5051498;28;20222;-81
2022/09/29 00:14:09;;;;;;;2.90;1.97;;;;;;;8.91;79.61;99248.31;5051626;28;20213;-80
2022/09/29 00:16:35;;;;;;;4.43;2.03;;;;;;;8.85;80.13;99243.47;5054382;28;20288;-81
2022/09/29 00:19:02;;;;;;;2.73;1.80;;;;;;;8.82;79.81;99257.00;5051204;28;20616;-81
2022/09/29 00:21:28;;;;;;;3.93;1.80;;;;;;;8.78;80.42;99249.41;5052619;28;20250;-81
2022/09/29 00:23:55;;;;;;;2.70;1.90;;;;;;;8.73;80.15;99249.75;5052649;28;20202;-81
2022/09/29 00:26:23;;;;;;;4.43;1.80;;;;;;;8.70;80.11;99244.69;5050963;28;20201;-81
2022/09/29 00:28:55;;;;;;;1.87;1.77;;;;;;;8.67;80.41;99245.75;5049945;28;20680;-81
2022/09/29 00:31:22;;;;;;;3.37;2.00;;;;;;;8.62;80.11;99247.06;5049986;28;20267;-81
2022/09/29 00:33:49;;;;;;;2.90;1.83;;;;;;;8.57;80.20;99254.56;5059504;28;20205;-80
2022/09/29 00:36:18;;;;;;;2.50;1.87;;;;;;;8.52;80.32;99254.06;5049250;28;20249;-81
2022/09/29 00:38:46;;;;;;;2.37;2.07;;;;;;;8.48;80.05;99247.31;5048797;28;20205;-81
2022/09/29 00:41:16;;;;;;;2.23;1.90;;;;;;;8.42;80.63;99253.91;5070539;28;20205;-80
2022/09/29 00:44:03;;;;;;;3.03;2.30;;;;;;;8.38;80.49;99249.84;5059442;28;20286;-80
2022/09/29 00:46:37;;;;;;;2.00;1.87;;;;;;;8.33;80.21;99242.22;5047607;28;20197;-80
2022/09/29 00:49:11;;;;;;;3.47;2.30;;;;;;;8.30;80.78;99238.91;5044580;28;20201;-80
2022/09/29 00:51:40;;;;;;;4.17;2.30;;;;;;;8.25;80.98;99239.25;5058804;28;20219;-80
2022/09/29 00:54:07;;;;;;;3.43;2.27;;;;;;;8.20;80.83;99238.78;5054253;28;20205;-80
2022/09/29 00:56:35;;;;;;;3.00;2.10;;;;;;;8.17;80.81;99241.66;5055334;28;20221;-80
2022/09/29 00:59:07;;;;;;;3.70;2.40;;;;;;;8.11;80.92;99236.81;5050700;28;20209;-80
2022/09/29 01:01:33;;;;;;;2.63;2.30;;;;;;;8.07;80.74;99240.66;5048348;28;20674;-80
2022/09/29 01:04:06;;;;;;;4.70;2.60;;;;;;;8.05;81.96;99241.75;5053271;28;20202;-80
2022/09/29 01:06:37;;;;;;;3.87;2.30;;;;;;;8.01;82.09;99249.09;5044932;28;20202;-80
2022/09/29 01:09:07;;;;;;;4.50;2.73;;;;;;;7.98;81.81;99244.00;5050274;28;20197;-80
2022/09/29 01:11:34;;;;;;;3.43;2.40;;;;;;;7.94;81.41;99248.69;5053533;28;20232;-80
2022/09/29 01:14:06;;;;;;;3.03;2.60;;;;;;;7.90;80.99;99249.03;5044445;28;20206;-80
2022/09/29 01:16:34;;;;;;;3.80;2.60;;;;;;;7.86;81.60;99247.59;5041570;28;20213;-80
2022/09/29 01:19:04;;;;;;;3.47;2.60;;;;;;;7.83;81.86;99253.09;5048092;28;20244;-80
2022/09/29 01:21:38;;;;;;;3.70;2.23;;;;;;;7.78;82.19;99256.09;5054291;28;20667;-81
2022/09/29 01:24:31;;;;;;;4.83;2.40;;;;;;;7.72;81.62;99256.53;5047091;28;20568;-80
2022/09/29 01:27:12;;;;;;;3.47;2.90;;;;;;;7.66;82.08;99252.56;5056752;28;20209;-80
2022/09/29 01:29:56;;;;;;;3.67;2.80;;;;;;;7.63;81.44;99252.78;5050786;28;20644;-80
2022/09/29 01:32:33;;;;;;;5.30;2.67;;;;;;;7.60;81.95;99257.44;5050616;28;20803;-80
2022/09/29 01:35:08;;;;;;;3.20;2.90;;;;;;;7.56;81.89;99259.47;5047596;28;20476;-80
2022/09/29 01:37:49;;;;;;;3.50;3.10;;;;;;;7.52;82.33;99268.63;5050162;28;20208;-80
2022/09/29 01:40:20;;;;;;;3.93;3.07;;;;;;;7.49;81.83;99262.69;5038537;28;20206;-80
2022/09/29 01:42:55;;;;;;;4.60;3.30;;;;;;;7.45;82.22;99270.00;5045029;28;20198;-81
2022/09/29 01:45:29;;;;;;;3.80;3.40;;;;;;;7.43;82.40;99266.63;5048307;28;20221;-80
2022/09/29 01:48:02;;;;;;;4.83;3.30;;;;;;;7.40;82.72;99263.34;5044828;28;20205;-82
2022/09/29 01:50:33;;;;;;;5.37;3.83;;;;;;;7.37;83.13;99258.25;5041696;28;20577;-80
2022/09/29 01:53:04;;;;;;;6.40;3.70;;;;;;;7.33;82.81;99260.31;5044124;28;20220;-82
2022/09/29 01:55:35;;;;;;;5.33;4.13;;;;;;;7.28;83.25;99260.63;5040819;28;20611;-82
2022/09/29 01:58:05;;;;;;;4.97;3.93;;;;;;;7.26;82.74;99259.91;5042499;28;20228;-81
2022/09/29 02:00:37;;;;;;;7.40;4.23;;;;;;;7.23;83.15;99264.56;5047622;28;20203;-82
2022/09/29 02:03:11;;;;;;;5.73;4.40;;;;;;;7.20;83.47;99262.13;5045782;28;20202;-81
2022/09/29 02:05:41;;;;;;;5.67;3.50;;;;;;;7.16;83.30;99264.16;5047060;28;20225;-80
2022/09/29 02:08:13;;;;;;;5.17;4.47;;;;;;;7.12;83.44;99264.50;5044224;28;20201;-81
2022/09/29 02:10:46;;;;;;;5.90;4.33;;;;;;;7.09;83.96;99270.00;5045167;28;20199;-82
2022/09/29 02:13:15;;;;;;;5.80;4.37;;;;;;;7.05;83.52;99273.81;5046998;28;20212;-82
2022/09/29 02:15:45;;;;;;;8.00;6.10;;;;;;;7.01;83.88;99267.03;5043064;28;20694;-83
2022/09/29 02:18:18;;;;;;;7.13;5.10;;;;;;;6.99;83.81;99266.31;5043842;28;20202;-82
2022/09/29 02:20:46;;;;;;;7.47;6.10;;;;;;;6.97;84.54;99269.06;5048662;28;20552;-82
2022/09/29 02:23:13;;;;;;;7.43;6.30;;;;;;;6.96;85.02;99272.66;5043250;28;20683;-82
2022/09/29 02:25:40;;;;;;;8.97;6.77;;;;;;;6.93;85.30;99265.78;5049175;28;20221;-81
2022/09/29 02:28:08;;;;;;;10.53;6.63;;;;;;;6.92;84.78;99264.09;5044799;28;20208;-81
2022/09/29 02:30:35;;;;;;;10.00;6.70;;;;;;;6.90;85.13;99265.16;5044246;28;20657;-82
2022/09/29 02:33:01;;;;;;;9.90;6.97;;;;;;;6.87;85.33;99265.34;5045974;28;20232;-81
2022/09/29 02:35:40;;;;;;;9.70;7.60;;;;;;;6.85;85.73;99265.47;5048394;28;20249;-82
2022/09/29 02:38:16;;;;;;;8.57;7.40;;;;;;;6.81;85.63;99263.13;5046541;28;20205;-82
2022/09/29 02:40:53;;;;;;;10.87;7.50;;;;;;;6.80;86.17;99272.91;5041458;28;20209;-82
2022/09/29 02:43:39;;;;;;;12.27;8.47;;;;;;;6.77;86.54;99272.25;5043348;28;20206;-81
2022/09/29 02:46:22;;;;;;;11.47;8.47;;;;;;;6.75;86.66;99269.72;5041993;28;20232;-80
2022/09/29 02:49:06;;;;;;;11.33;8.60;;;;;;;6.73;86.98;99273.41;5047656;28;20206;-80
2022/09/29 02:51:39;;;;;;;10.00;7.77;;;;;;;6.71;87.71;99278.81;5044747;28;20205;-80
2022/09/29 02:54:25;;;;;;;13.37;9.23;;;;;;;6.70;87.13;99281.56;5045506;28;20193;-80
2022/09/29 02:57:01;;;;;;;13.07;9.07;;;;;;;6.67;87.56;99272.03;5043749;28;20214;-83
2022/09/29 02:59:35;;;;;;;13.70;9.57;;;;;;;6.64;88.27;99269.59;5041207;28;20202;-82
2022/09/29 03:02:02;;;;;;;10.60;8.27;;;;;;;6.60;87.73;99270.78;5047444;28;20619;-83
2022/09/29 03:04:29;;;;;;;11.37;9.13;;;;;;;6.58;88.38;99272.69;5045653;28;20229;-82
2022/09/29 03:06:57;;;;;;;12.70;9.60;;;;;;;6.53;88.66;99270.34;5048891;28;20213;-79
2022/09/29 03:09:23;;;;;;;12.87;9.13;;;;;;;6.50;88.38;99270.56;5042567;28;20619;-81
2022/09/29 03:11:50;;;;;;;12.47;9.40;;;;;;;6.49;88.85;99279.44;5041490;28;20581;-80
2022/09/29 03:14:16;;;;;;;13.07;9.23;;;;;;;6.47;89.56;99283.97;5046969;28;20592;-80
2022/09/29 03:16:43;;;;;;;17.97;11.63;;;;;;;6.47;89.62;99281.34;5042059;28;20206;-81
2022/09/29 03:19:10;;;;;;;11.97;8.83;;;;;;;6.48;90.12;99274.25;5046708;28;20209;-80
2022/09/29 03:21:36;;;;;;;11.40;9.27;;;;;;;6.49;90.07;99274.16;5042830;28;20237;-82
2022/09/29 03:24:05;;;;;;;13.23;9.70;;;;;;;6.50;90.36;99280.28;5049136;28;20688;-82
2022/09/29 03:26:31;;;;;;;13.57;10.13;;;;;;;6.51;90.12;99279.34;5045732;28;20285;-81
2022/09/29 03:28:59;;;;;;;14.60;10.80;;;;;;;6.50;90.90;99273.19;5046092;28;20312;-82
2022/09/29 03:31:25;;;;;;;17.53;11.47;;;;;;;6.52;90.45;99284.53;5045631;28;20201;-83
2022/09/29 03:33:52;;;;;;;16.50;11.00;;;;;;;6.53;91.02;99288.00;5042357;28;20225;-82
2022/09/29 03:36:18;;;;;;;17.07;11.80;;;;;;;6.52;90.89;99286.31;5046198;28;20706;-82
2022/09/29 03:38:46;;;;;;;13.23;10.30;;;;;;;6.51;90.67;99287.28;5048405;28;20679;-83
2022/09/29 03:41:14;;;;;;;15.60;11.03;;;;;;;6.50;91.37;99285.56;5044401;28;20202;-82
2022/09/29 03:43:41;;;;;;;19.93;11.30;;;;;;;6.50;91.10;99290.88;5044858;28;20194;-82
2022/09/29 03:46:07;;;;;;;14.00;10.40;;;;;;;6.48;91.35;99288.31;5046805;28;20683;-82
2022/09/29 03:48:34;;;;;;;17.53;11.20;;;;;;;6.47;91.56;99291.06;5048911;28;20288;-82
2022/09/29 03:51:01;;;;;;;14.93;10.17;;;;;;;6.46;91.45;99290.22;5051393;28;21639;-82
2022/09/29 03:53:27;;;;;;;14.27;10.60;;;;;;;6.44;91.82;99299.25;5047410;28;20217;-83
2022/09/29 03:55:53;;;;;;;14.27;10.53;;;;;;;6.42;91.80;99301.97;5048607;28;20718;-83
2022/09/29 03:58:21;;;;;;;15.90;10.50;;;;;;;6.39;91.39;99310.13;5043083;28;20221;-81
2022/09/29 04:00:48;;;;;;;15.17;10.60;;;;;;;6.37;92.20;99308.53;5041956;28;20206;-82
2022/09/29 04:03:15;;;;;;;15.07;10.40;;;;;;;6.35;91.45;99303.34;5049290;28;20648;-81
2022/09/29 04:05:42;;;;;;;15.87;11.63;;;;;;;6.32;92.04;99310.63;5047534;28;20232;-81
2022/09/29 04:08:08;;;;;;;18.10;11.33;;;;;;;6.28;92.05;99313.47;5037157;28;20285;-82
2022/09/29 04:10:36;;;;;;;16.20;11.40;;;;;;;6.26;91.87;99311.91;5034952;28;20206;-81
2022/09/29 04:13:02;;;;;;;17.03;11.20;;;;;;;6.23;91.88;99312.09;5034860;28;20226;-82
2022/09/29 04:15:30;;;;;;;16.97;11.27;;;;;;;6.22;92.07;99313.91;5040134;28;20218;-82
2022/09/29 04:17:57;;;;;;;15.83;11.37;;;;;;;6.19;92.48;99313.25;5041148;28;20206;-82
2022/09/29 04:20:23;;;;;;;17.03;11.90;;;;;;;6.18;92.46;99320.31;5039643;28;20201;-80
2022/09/29 04:22:50;;;;;;;16.73;11.53;;;;;;;6.18;92.65;99322.97;5044026;28;20696;-82
2022/09/29 04:25:17;;;;;;;17.03;11.43;;;;;;;6.16;92.56;99321.38;5040920;28;20221;-81
2022/09/29 04:27:43;;;;;;;14.37;10.90;;;;;;;6.15;93.23;99320.53;5038963;28;20556;-81
2022/09/29 04:30:11;;;;;;;17.13;12.43;;;;;;;6.13;93.43;99325.06;5043089;28;20224;-83
2022/09/29 04:32:39;;;;;;;18.13;12.23;;;;;;;6.12;93.10;99326.00;5036356;28;20222;-81
2022/09/29 04:35:06;;;;;;;17.63;12.13;;;;;;;6.11;93.49;99323.47;5042618;28;20235;-81
2022/09/29 04:37:32;;;;;;;17.67;11.83;;;;;;;6.11;93.42;99328.75;5042901;28;20198;-82
2022/09/29 04:39:59;;;;;;;18.17;12.73;;;;;;;6.11;93.69;99334.03;5047343;28;20210;-82
2022/09/29 04:42:25;;;;;;;17.67;12.47;;;;;;;6.11;93.87;99334.03;5043932;28;20202;-81
2022/09/29 04:44:52;;;;;;;20.03;13.43;;;;;;;6.11;94.25;99336.69;5046301;28;20253;-81
2022/09/29 04:47:18;;;;;;;21.70;13.00;;;;;;;6.12;94.18;99333.09;5046318;28;20207;-80
2022/09/29 04:49:46;;;;;;;22.60;13.50;;;;;;;6.13;94.65;99335.63;5043640;28;20217;-81
2022/09/29 04:52:13;;;;;;;19.13;12.97;;;;;;;6.14;94.53;99331.19;5050647;28;20205;-81
2022/09/29 04:54:39;;;;;;;21.03;13.80;;;;;;;6.15;94.46;99331.09;5047855;28;20244;-81
2022/09/29 04:57:06;;;;;;;18.17;13.70;;;;;;;6.16;94.81;99335.44;5045464;28;20367;-81
2022/09/29 04:59:33;;;;;;;25.67;14.30;;;;;;;6.16;94.66;99338.09;5046819;28;20212;-81
2022/09/29 05:01:59;;;;;;;21.17;13.27;;;;;;;6.17;95.31;99344.22;5038839;28;20688;-81
2022/09/29 05:04:26;;;;;;;19.00;12.73;;;;;;;6.18;95.19;99346.75;5037249;28;20236;-82
2022/09/29 05:06:54;;;;;;;18.97;13.20;;;;;;;6.17;95.32;99342.41;5042400;28;20217;-81
2022/09/29 05:09:20;;;;;;;21.50;13.47;;;;;;;6.18;95.47;99349.41;5038791;28;20215;-81
2022/09/29 05:11:46;;;;;;;19.47;13.30;;;;;;;6.18;95.32;99349.41;5043373;28;20206;-83
2022/09/29 05:14:13;;;;;;;19.77;13.93;;;;;;;6.18;95.76;99353.84;5043194;28;20221;-82
2022/09/29 05:16:39;;;;;;;21.20;13.77;;;;;;;6.17;95.47;99354.78;5045320;28;20292;-80
2022/09/29 05:19:06;;;;;;;20.90;14.13;;;;;;;6.19;95.30;99351.09;5044940;28;20207;-81
2022/09/29 05:21:32;;;;;;;21.77;14.83;;;;;;;6.18;95.47;99351.19;5038033;28;20206;-81
2022/09/29 05:24:00;;;;;;;19.47;13.47;;;;;;;6.17;95.94;99355.66;5042396;28;20692;-82
2022/09/29 05:26:27;;;;;;;24.57;15.03;;;;;;;6.16;95.73;99361.88;5043265;28;20205;-81
2022/09/29 05:28:53;;;;;;;23.53;14.13;;;;;;;6.16;95.78;99356.59;5054020;28;20575;-82
2022/09/29 05:31:20;;;;;;;22.03;14.03;;;;;;;6.15;95.69;99360.19;5055115;28;20660;-80
2022/09/29 05:33:46;;;;;;;19.67;13.00;;;;;;;6.15;96.11;99360.19;5068792;28;20679;-80
2022/09/29 05:36:13;;;;;;;21.07;13.43;;;;;;;6.14;95.98;99363.75;5054410;28;20237;-80
2022/09/29 05:38:40;;;;;;;20.20;13.83;;;;;;;6.12;96.46;99363.00;5066156;28;20208;-81
2022/09/29 05:41:10;;;;;;;21.33;12.87;;;;;;;6.11;96.40;99363.97;5056932;28;20583;-81
2022/09/29 05:43:37;;;;;;;19.07;12.87;;;;;;;6.10;96.41;99362.25;5058385;28;20195;-80
2022/09/29 05:46:06;;;;;;;19.20;13.03;;;;;;;6.11;96.29;99363.13;5046501;28;20229;-80
2022/09/29 05:48:32;;;;;;;21.23;13.43;;;;;;;6.11;96.33;99361.31;5045881;28;20202;-80
2022/09/29 05:51:00;;;;;;;21.77;13.40;;;;;;;6.13;96.61;99366.50;5058884;28;20648;-80
2022/09/29 05:53:26;;;;;;;19.93;13.20;;;;;;;6.13;96.57;99377.94;5054306;28;20226;-80
2022/09/29 05:55:53;;;;;;;23.60;14.07;;;;;;;6.15;96.51;99376.03;5053783;28;20225;-81
2022/09/29 05:58:20;;;;;;;20.43;13.17;;;;;;;6.16;96.76;99375.09;5054775;28;20225;-80
2022/09/29 06:00:47;;;;;;;19.57;13.00;;;;;;;6.18;96.75;99369.72;5054521;28;20664;-82
2022/09/29 06:03:13;;;;;;;18.37;12.87;;;;;;;6.19;96.45;99372.25;5054263;28;20202;-81
2022/09/29 06:05:40;;;;;;;19.90;13.30;;;;;;;6.19;96.75;99366.97;5038814;28;20701;-80
2022/09/29 06:08:07;;;;;;;20.60;13.30;;;;;;;6.20;97.25;99371.31;5073423;28;20200;-81
2022/09/29 06:10:34;;;;;;;21.60;13.90;;;;;;;6.22;96.97;99371.22;5055758;28;20201;-81
2022/09/29 06:13:02;;;;;;;20.00;12.53;;;;;;;6.25;96.92;99374.50;5057656;28;20272;-82
2022/09/29 06:15:30;;;;;;;20.33;14.00;;;;;;;6.27;97.18;99371.72;5054051;28;20249;-82
2022/09/29 06:17:57;;;;;;;21.97;13.70;;;;;;;6.30;97.48;99375.97;5060487;28;20208;-80
2022/09/29 06:20:23;;;;;;;20.77;13.07;;;;;;;6.31;97.46;99370.59;5053756;28;20206;-81
2022/09/29 06:22:52;;;;;;;20.50;13.20;;;;;;;6.35;97.72;99380.03;5048634;28;20590;-81
2022/09/29 06:25:18;;;;;;;22.33;14.50;;;;;;;6.38;97.32;99384.25;5058616;28;20657;-82
2022/09/29 06:27:44;;;;;;;18.30;13.20;;;;;;;6.41;97.48;99371.69;5053340;28;20572;-81
2022/09/29 06:30:12;;;;;;;21.30;13.83;;;;;;;6.44;97.45;99373.28;5047367;28;20206;-81
2022/09/29 06:32:40;;;;;;;20.63;13.53;;;;;;;6.47;97.54;99376.56;5061304;28;20705;-80
2022/09/29 06:37:55;;;;;;;20.10;13.90;;;;;;;6.56;98.56;99378.59;5045026;28;20291;-82
2022/09/29 06:40:26;;;;;;;22.13;14.30;;;;;;;6.60;98.37;99381.88;5049938;28;20288;-82
2022/09/29 06:42:52;;;;;;;26.47;15.43;;;;;;;6.65;98.25;99385.06;5047884;28;20228;-83
2022/09/29 06:45:19;;;;;;;22.87;15.40;;;;;;;6.68;98.78;99384.84;5055105;28;20229;-82
2022/09/29 06:47:46;;;;;;;24.13;15.00;;;;;;;6.72;98.19;99389.00;5047882;28;20333;-82
2022/09/29 06:50:13;;;;;;;21.47;14.37;;;;;;;6.76;98.42;99393.13;5047857;28;20670;-82
2022/09/29 06:52:39;;;;;;;21.60;14.43;;;;;;;6.80;98.90;99399.91;5052369;28;20202;-83
2022/09/29 06:55:07;;;;;;;23.17;14.27;;;;;;;6.84;98.23;99389.94;5054721;28;20236;-82
2022/09/29 06:57:33;;;;;;;21.73;13.63;;;;;;;6.89;98.81;99393.13;5060215;28;20217;-82
2022/09/29 07:00:00;;;;;;;20.03;13.10;;;;;;;6.93;98.21;99391.97;5057103;28;20205;-82
2022/09/29 07:02:27;;;;;;;23.20;14.90;;;;;;;6.99;98.86;99399.47;5057513;28;20241;-82
2022/09/29 07:04:55;;;;;;;21.23;13.57;;;;;;;7.04;99.23;99389.44;5055256;28;20221;-82
2022/09/29 07:07:21;;;;;;;23.90;14.93;;;;;;;7.12;99.16;99400.34;5047643;28;20217;-82
2022/09/29 07:09:47;;;;;;;19.27;13.90;;;;;;;7.21;99.35;99404.16;5058091;28;20231;-83
2022/09/29 07:12:14;;;;;;;23.27;14.60;;;;;;;7.31;99.79;99397.28;5059514;28;20576;-82
2022/09/29 07:14:40;;;;;;;20.93;14.23;;;;;;;7.39;99.43;99402.03;5056123;28;20702;-83
2022/09/29 07:17:08;;;;;;;21.17;14.50;;;;;;;7.48;100.00;99399.59;5057776;28;20212;-83
2022/09/29 07:19:34;;;;;;;20.93;14.50;;;;;;;7.59;100.00;99404.97;5054923;28;20203;-83
2022/09/29 07:22:03;;;;;;;22.53;14.13;;;;;;;7.70;100.00;99400.72;5055391;28;20206;-83
2022/09/29 07:24:29;;;;;;;21.30;13.93;;;;;;;7.78;100.00;99401.84;5057620;28;20216;-83
2022/09/29 07:26:56;;;;;;;21.43;15.07;;;;;;;7.90;100.00;99405.41;5051755;28;20217;-82
2022/09/29 07:29:22;;;;;;;23.70;15.13;;;;;;;7.98;100.00;99411.03;5052425;28;20221;-82
2022/09/29 07:31:51;;;;;;;23.03;14.73;;;;;;;8.06;100.00;99411.31;5051020;28;20206;-83
2022/09/29 07:34:18;;;;;;;23.53;14.77;;;;;;;8.15;99.61;99410.66;5061730;28;20237;-82
2022/09/29 07:36:44;;;;;;;21.73;14.47;;;;;;;8.27;100.00;99420.34;5044069;28;20205;-82
2022/09/29 07:39:12;;;;;;;23.90;14.73;;;;;;;8.42;99.92;99425.56;5054362;28;20201;-83
2022/09/29 07:41:38;;;;;;;20.20;13.77;;;;;;;8.56;100.00;99422.72;5051694;28;20205;-83
2022/09/29 07:44:05;;;;;;;18.40;14.07;;;;;;;8.66;99.33;99429.00;5057169;28;20202;-84
2022/09/29 07:46:32;;;;;;;17.57;13.43;;;;;;;8.78;99.08;99417.47;5053744;28;20222;-84
2022/09/29 07:48:58;;;;;;;18.63;13.03;;;;;;;8.92;97.99;99424.41;5059058;28;20627;-83
2022/09/29 07:51:25;;;;;;;17.30;13.57;;;;;;;9.04;97.38;99426.13;5063747;28;20197;-83
2022/09/29 07:53:51;;;;;;;16.90;13.10;;;;;;;9.16;96.61;99419.84;5060064;28;20691;-84
2022/09/29 07:56:21;;;;;;;17.67;13.67;;;;;;;9.28;96.18;99426.06;5058988;28;20476;-84
2022/09/29 07:58:49;;;;;;;19.83;14.33;;;;;;;9.43;95.07;99427.50;5051192;28;20212;-83
2022/09/29 08:01:17;;;;;;;15.83;11.57;;;;;;;9.61;94.53;99422.56;5048158;28;20568;-84
2022/09/29 08:03:48;;;;;;;15.80;12.50;;;;;;;9.73;93.63;99419.78;5050911;28;20204;-83
2022/09/29 08:06:15;;;;;;;12.67;11.13;;;;;;;9.87;92.51;99428.47;5057652;28;20226;-83
2022/09/29 08:08:42;;;;;;;15.33;11.50;;;;;;;9.97;91.53;99429.44;5058203;28;20213;-83
2022/09/29 08:11:11;;;;;;;11.90;10.37;;;;;;;10.08;90.78;99427.59;5058977;28;20221;-83
2022/09/29 08:13:40;;;;;;;12.47;9.80;;;;;;;10.20;89.24;99430.28;5031047;28;20710;-83
2022/09/29 08:16:08;;;;;;;13.03;10.00;;;;;;;10.31;88.16;99435.56;5049829;28;20225;-83
2022/09/29 08:18:35;;;;;;;12.37;10.07;;;;;;;10.43;87.44;99438.06;5050604;28;20213;-83
2022/09/29 08:21:03;;;;;;;11.47;9.13;;;;;;;10.55;86.46;99441.56;5061553;28;20206;-83
2022/09/29 08:23:31;;;;;;;10.97;9.30;;;;;;;10.66;85.39;99440.66;5056776;28;20734;-84
2022/09/29 08:26:01;;;;;;;11.87;9.87;;;;;;;10.78;84.62;99447.63;5062867;28;20245;-83
2022/09/29 08:28:28;;;;;;;12.70;9.67;;;;;;;10.89;83.40;99452.06;5056953;28;20287;-83
2022/09/29 08:30:56;;;;;;;11.83;9.43;;;;;;;10.97;82.30;99457.59;5061508;28;20219;-83
2022/09/29 08:33:23;;;;;;;10.37;9.37;;;;;;;11.05;81.23;99447.13;5048659;28;20209;-83
2022/09/29 08:35:55;;;;;;;9.97;8.40;;;;;;;11.16;80.45;99457.72;5039808;28;20231;-83
2022/09/29 08:38:22;;;;;;;11.37;9.50;;;;;;;11.24;79.13;99455.25;5059998;28;20701;-83
2022/09/29 08:40:48;;;;;;;10.60;9.10;;;;;;;11.29;78.77;99457.50;5049322;28;20204;-83
2022/09/29 08:43:18;;;;;;;10.20;8.03;;;;;;;11.36;78.20;99458.69;5050524;28;20207;-83
2022/09/29 08:45:49;;;;;;;10.90;9.60;;;;;;;11.38;77.40;99456.75;5050588;28;20237;-83
2022/09/29 08:48:22;;;;;;;10.37;9.03;;;;;;;11.45;77.04;99461.44;5053611;28;20203;-83
2022/09/29 08:50:56;;;;;;;10.73;8.27;;;;;;;11.54;76.90;99462.44;5059252;28;20772;-83
2022/09/29 08:53:24;;;;;;;9.17;8.17;;;;;;;11.57;76.33;99466.69;5050425;28;20242;-83
2022/09/29 08:55:53;;;;;;;10.33;8.53;;;;;;;11.62;75.96;99461.81;5054290;28;20264;-83
2022/09/29 08:58:20;;;;;;;9.80;8.80;;;;;;;11.69;75.79;99465.63;5060068;28;20765;-83
2022/09/29 09:00:59;;;;;;;10.40;9.30;;;;;;;11.74;75.31;99466.91;5050515;28;20755;-84
2022/09/29 09:04:02;;;;;;;10.97;9.33;;;;;;;11.74;74.50;99469.56;5051013;28;20196;-83
2022/09/29 09:06:41;;;;;;;10.70;9.60;;;;;;;11.76;74.54;99470.31;5051264;28;20658;-83
2022/09/29 09:09:25;;;;;;;11.57;9.67;;;;;;;11.79;74.58;99475.41;5060905;28;20569;-85
2022/09/29 09:12:15;;;;;;;10.03;8.50;;;;;;;11.87;74.70;99476.53;5051922;28;20203;-84
2022/09/29 09:14:58;;;;;;;12.37;10.40;;;;;;;11.91;74.28;99473.47;5066285;28;20232;-83
2022/09/29 09:17:48;;;;;;;13.67;10.57;;;;;;;11.95;73.74;99474.06;5063034;28;20201;-83
2022/09/29 09:20:30;;;;;;;11.63;9.73;;;;;;;12.05;74.15;99469.59;5044342;28;20208;-84
2022/09/29 09:22:59;;;;;;;12.73;10.60;;;;;;;12.18;74.12;99478.22;5062807;28;20230;-84
2022/09/29 09:25:29;;;;;;;11.13;8.73;;;;;;;12.29;73.59;99475.44;5071263;28;20220;-84
2022/09/29 09:28:04;;;;;;;10.93;9.20;;;;;;;12.44;73.54;99478.56;5071186;28;20562;-84
2022/09/29 09:30:38;;;;;;;12.00;10.40;;;;;;;12.57;73.06;99478.28;5070843;28;20250;-84
2022/09/29 09:33:10;;;;;;;10.87;9.73;;;;;;;12.66;72.93;99478.31;5059369;28;20679;-83
2022/09/29 09:35:42;;;;;;;11.10;9.90;;;;;;;12.77;72.59;99486.19;5055768;28;20228;-83
2022/09/29 09:38:15;;;;;;;13.90;10.17;;;;;;;12.88;72.48;99485.22;5050149;28;20189;-83
2022/09/29 09:40:46;;;;;;;11.73;10.53;;;;;;;13.01;72.05;99485.78;5051418;28;20208;-83
2022/09/29 09:43:19;;;;;;;12.87;11.50;;;;;;;13.12;71.83;99480.28;5050848;28;20209;-84
2022/09/29 09:45:52;;;;;;;12.40;10.60;;;;;;;13.24;71.17;99482.88;5045517;28;20232;-83
2022/09/29 09:48:25;;;;;;;12.23;10.97;;;;;;;13.32;70.72;99474.97;5040673;28;20213;-83
2022/09/29 09:50:53;;;;;;;11.10;9.40;;;;;;;13.43;70.40;99482.84;5039128;28;20210;-83
2022/09/29 09:53:26;;;;;;;12.47;10.13;;;;;;;13.50;69.87;99476.75;5050963;28;20385;-83
2022/09/29 09:56:03;;;;;;;11.70;10.50;;;;;;;13.60;70.01;99482.09;5041157;28;20640;-84
2022/09/29 09:58:56;;;;;;;12.50;10.47;;;;;;;13.72;69.50;99488.09;5043078;28;20213;-83
2022/09/29 10:01:23;;;;;;;12.67;9.90;;;;;;;13.80;68.78;99483.69;5047932;28;20215;-83
2022/09/29 10:03:49;;;;;;;12.53;10.37;;;;;;;13.85;68.44;99481.44;5049342;28;20212;-83
2022/09/29 10:06:17;;;;;;;11.90;9.87;;;;;;;13.93;68.11;99482.56;5053527;28;20221;-83
2022/09/29 10:08:44;;;;;;;12.80;10.23;;;;;;;13.98;68.06;99482.94;5045951;28;20214;-84
2022/09/29 10:11:23;;;;;;;11.20;9.93;;;;;;;14.03;67.80;99473.47;5048715;28;20208;-84
2022/09/29 10:13:58;;;;;;;10.63;9.57;;;;;;;14.11;67.05;99483.47;5055059;28;20292;-84
2022/09/29 10:16:28;;;;;;;12.23;8.97;;;;;;;14.16;66.80;99479.31;5049571;28;20220;-83
2022/09/29 10:18:55;;;;;;;11.00;9.43;;;;;;;14.18;65.59;99479.19;5048326;28;20630;-83
2022/09/29 10:21:36;;;;;;;10.13;9.10;;;;;;;14.21;66.21;99471.69;5044433;28;20202;-84
2022/09/29 10:24:06;;;;;;;10.17;9.03;;;;;;;14.28;65.62;99476.47;5054130;28;20197;-83
2022/09/29 10:26:35;;;;;;;11.50;8.73;;;;;;;14.31;65.01;99479.69;5045543;28;20260;-84
2022/09/29 10:29:03;;;;;;;9.87;8.17;;;;;;;14.35;64.92;99474.84;5049082;28;20206;-83
2022/09/29 10:31:32;;;;;;;9.20;8.17;;;;;;;14.39;64.68;99471.75;5048799;28;20201;-84
2022/09/29 10:34:01;;;;;;;8.83;7.90;;;;;;;14.46;64.04;99472.03;5045349;28;20213;-84
2022/09/29 10:36:33;;;;;;;10.50;7.47;;;;;;;14.50;64.15;99476.94;5041336;28;20579;-84
2022/09/29 10:39:00;;;;;;;9.27;7.47;;;;;;;14.55;63.75;99490.72;5043066;28;20208;-83
2022/09/29 10:41:26;;;;;;;10.00;7.83;;;;;;;14.56;62.90;99484.34;5045260;28;20209;-84
2022/09/29 10:43:52;;;;;;;7.73;6.93;;;;;;;14.57;62.79;99480.69;5043673;28;20201;-83
2022/09/29 10:46:49;;;;;;;8.23;7.13;;;;;;;14.63;63.00;99486.44;5044590;28;20229;-82
2022/09/29 10:49:17;;;;;;;8.13;7.17;;;;;;;14.64;62.44;99485.44;5049121;28;21282;-83
2022/09/29 10:51:53;;;;;;;6.90;6.07;;;;;;;14.71;62.20;99490.03;5048820;28;20224;-83
2022/09/29 10:54:24;;;;;;;7.03;6.33;;;;;;;14.74;61.81;99491.56;5050149;28;20225;-83
2022/09/29 10:56:51;;;;;;;7.03;6.23;;;;;;;14.82;61.71;99487.16;5050525;28;20205;-83
2022/09/29 10:59:19;;;;;;;5.83;5.23;;;;;;;14.91;61.47;99482.69;5044061;28;20209;-83
2022/09/29 11:01:50;;;;;;;6.40;5.80;;;;;;;14.94;60.68;99487.75;5046949;28;20203;-84
2022/09/29 11:04:21;;;;;;;6.27;5.67;;;;;;;14.96;60.62;99496.50;5053721;28;20221;-83
2022/09/29 11:06:50;;;;;;;6.13;5.00;;;;;;;14.97;60.45;99494.66;5051949;28;20221;-83
2022/09/29 11:09:28;;;;;;;5.87;5.27;;;;;;;14.94;59.88;99501.16;5048988;28;20205;-83
2022/09/29 11:11:56;;;;;;;6.20;5.60;;;;;;;14.93;59.79;99500.31;5047975;28;20217;-84
2022/09/29 11:14:28;;;;;;;5.80;5.13;;;;;;;14.97;59.54;99505.38;5053419;28;20281;-83
2022/09/29 11:16:56;;;;;;;160.47;66.23;;;;;;;14.99;59.27;99501.56;5049463;28;20214;-83
2022/09/29 11:19:23;;;;;;;9.80;7.50;;;;;;;15.06;59.30;99502.59;5058506;28;20210;-83
2022/09/29 11:22:19;;;;;;;44.90;25.07;;;;;;;15.08;58.67;99500.63;5055182;28;20210;-83
2022/09/29 11:25:15;;;;;;;8.10;7.30;;;;;;;15.13;58.67;99498.34;5052305;28;20697;-83
2022/09/29 11:27:59;;;;;;;6.00;5.33;;;;;;;15.14;58.36;99505.38;5053285;28;20231;-83
2022/09/29 11:30:32;;;;;;;5.57;5.07;;;;;;;15.14;58.72;99510.75;5053543;28;20261;-83
2022/09/29 11:33:15;;;;;;;5.50;5.00;;;;;;;15.17;58.49;99499.72;5051461;28;20203;-83
2022/09/29 11:35:51;;;;;;;9.13;8.33;;;;;;;15.21;58.26;99502.94;5042090;28;20232;-83
2022/09/29 11:38:42;;;;;;;34.93;22.37;;;;;;;15.23;57.59;99506.28;5055760;28;20207;-83
2022/09/29 11:41:26;;;;;;;5.73;4.07;;;;;;;15.26;57.07;99505.97;5047291;28;20213;-83
2022/09/29 11:43:55;;;;;;;5.00;4.03;;;;;;;15.29;56.68;99505.66;5047889;28;20806;-83
2022/09/29 11:46:53;;;;;;;9.80;7.00;;;;;;;15.23;56.66;99508.97;5056175;28;20226;-82